Time;durP1;ratioP1;P1;durP2;ratioP2;P2;SDS_P1;SDS_P2;PMS_P1;PMS_P2;Temp;Humidity;BMP_temperature;BMP_pressure;BME280_temperature;BME280_humidity;BME280_pressure;Samples;Min_cycle;Max_cycle;Signal;HPM_P1;HPM_P2
2021/01/19 00:00:42;;;;;;;0.30;0.30;;;2.90;99.90;;;;;;5029553;28;20170;-70
2021/01/19 00:03:07;;;;;;;0.30;0.30;;;2.90;99.90;;;;;;5033816;28;20209;-69
2021/01/19 00:05:33;;;;;;;0.30;0.30;;;2.80;99.90;;;;;;5032649;28;20221;-67
2021/01/19 00:07:58;;;;;;;0.30;0.23;;;2.90;99.90;;;;;;5013955;28;20185;-69
2021/01/19 00:10:24;;;;;;;0.30;0.30;;;2.90;99.90;;;;;;5015261;28;20209;-69
2021/01/19 00:12:50;;;;;;;0.30;0.30;;;2.90;99.90;;;;;;5033979;28;20193;-70
2021/01/19 00:15:15;;;;;;;0.30;0.30;;;2.90;99.90;;;;;;5034224;28;20200;-68
2021/01/19 00:17:41;;;;;;;0.30;0.30;;;3.00;99.90;;;;;;5033857;28;20166;-69
2021/01/19 00:20:08;;;;;;;0.30;0.30;;;3.00;99.90;;;;;;5034638;28;20166;-66
2021/01/19 00:22:34;;;;;;;0.30;0.30;;;2.90;99.90;;;;;;5015033;28;20175;-69
2021/01/19 00:25:00;;;;;;;0.30;0.30;;;2.90;99.90;;;;;;5014808;28;20178;-69
2021/01/19 00:27:26;;;;;;;3.10;2.38;;;2.90;99.90;;;;;;5016288;28;20166;-71
2021/01/19 00:29:52;;;;;;;0.30;0.30;;;2.90;99.90;;;;;;5015170;28;20669;-66
2021/01/19 00:32:17;;;;;;;0.57;0.57;;;2.90;99.90;;;;;;5033534;28;20182;-69
2021/01/19 00:34:43;;;;;;;0.30;0.30;;;2.90;99.90;;;;;;5034259;28;20260;-67
2021/01/19 00:37:08;;;;;;;0.30;0.30;;;2.90;99.90;;;;;;5014925;28;20642;-71
2021/01/19 00:39:34;;;;;;;0.40;0.40;;;3.00;99.90;;;;;;5014401;28;20170;-69
2021/01/19 00:42:00;;;;;;;0.30;0.30;;;2.90;99.90;;;;;;5015964;28;20253;-73
2021/01/19 00:44:25;;;;;;;0.40;0.40;;;2.80;99.90;;;;;;5033362;28;20202;-67
2021/01/19 00:46:51;;;;;;;0.30;0.30;;;2.80;99.90;;;;;;5034496;28;20257;-70
2021/01/19 00:49:18;;;;;;;0.30;0.30;;;2.80;99.90;;;;;;5034360;28;20646;-72
2021/01/19 00:51:44;;;;;;;0.30;0.30;;;2.80;99.90;;;;;;5015218;28;20418;-66
2021/01/19 00:54:10;;;;;;;0.30;0.30;;;2.80;99.90;;;;;;5014350;28;20248;-72
2021/01/19 00:56:41;;;;;;;0.30;0.30;;;2.80;99.90;;;;;;5027852;28;20170;-68
2021/01/19 00:59:07;;;;;;;0.30;0.30;;;2.80;99.90;;;;;;5033880;28;20174;-69
2021/01/19 01:01:34;;;;;;;0.30;0.30;;;2.80;99.90;;;;;;5032757;28;20177;-69
2021/01/19 01:04:00;;;;;;;0.30;0.30;;;2.90;99.90;;;;;;5033611;28;20285;-71
2021/01/19 01:06:25;;;;;;;0.30;0.30;;;2.90;99.90;;;;;;5018247;28;20191;-71
2021/01/19 01:08:51;;;;;;;0.30;0.30;;;2.90;99.90;;;;;;5013978;28;20173;-69
2021/01/19 01:11:18;;;;;;;0.30;0.30;;;2.90;99.90;;;;;;5025027;28;20178;-69
2021/01/19 01:13:43;;;;;;;0.30;0.30;;;2.90;99.90;;;;;;5033557;28;20198;-68
2021/01/19 01:16:11;;;;;;;0.40;0.40;;;2.90;99.90;;;;;;5020573;28;20175;-66
2021/01/19 01:18:37;;;;;;;0.30;0.30;;;2.80;99.90;;;;;;5013611;28;20659;-67
2021/01/19 01:21:02;;;;;;;0.30;0.30;;;2.80;99.90;;;;;;5023002;28;20174;-67
2021/01/19 01:23:28;;;;;;;0.30;0.30;;;2.70;99.90;;;;;;5032675;28;20311;-65
2021/01/19 01:25:54;;;;;;;0.30;0.30;;;2.60;99.90;;;;;;5032754;28;20416;-68
2021/01/19 01:28:19;;;;;;;0.30;0.30;;;2.60;99.90;;;;;;5033573;28;20173;-66
2021/01/19 01:30:45;;;;;;;0.40;0.40;;;2.50;99.90;;;;;;5031625;28;20178;-72
2021/01/19 01:33:11;;;;;;;0.30;0.30;;;2.40;99.90;;;;;;5031144;28;20597;-69
2021/01/19 01:35:37;;;;;;;0.40;0.40;;;2.40;99.90;;;;;;5033126;28;20427;-71
2021/01/19 01:38:02;;;;;;;0.30;0.30;;;2.30;99.90;;;;;;5032234;28;20216;-66
2021/01/19 01:40:28;;;;;;;0.30;0.30;;;2.30;99.90;;;;;;5030397;28;20421;-68
2021/01/19 01:43:08;;;;;;;0.30;0.30;;;2.30;99.90;;;;;;5013062;28;20190;-66
2021/01/19 01:45:34;;;;;;;0.30;0.30;;;2.20;99.90;;;;;;5013633;28;20405;-70
2021/01/19 01:48:01;;;;;;;0.40;0.40;;;2.20;99.90;;;;;;5013625;28;20689;-67
2021/01/19 01:50:26;;;;;;;0.40;0.40;;;2.10;99.90;;;;;;5031762;28;20174;-70
2021/01/19 01:52:53;;;;;;;0.40;0.40;;;2.00;99.90;;;;;;5032341;28;20704;-70
2021/01/19 01:55:19;;;;;;;0.30;0.30;;;2.00;99.90;;;;;;5028047;28;20177;-70
2021/01/19 01:57:46;;;;;;;0.73;0.73;;;2.10;99.90;;;;;;5013420;28;20174;-67
2021/01/19 02:00:13;;;;;;;0.30;0.30;;;2.00;99.90;;;;;;5029090;28;20170;-67
2021/01/19 02:02:48;;;;;;;0.30;0.30;;;2.00;99.90;;;;;;5032592;28;20186;-71
2021/01/19 02:05:14;;;;;;;0.40;0.40;;;2.00;99.90;;;;;;5017069;28;20592;-68
2021/01/19 02:07:50;;;;;;;0.30;0.30;;;2.00;99.90;;;;;;5029159;28;20236;-68
2021/01/19 02:10:28;;;;;;;0.32;0.32;;;1.90;99.90;;;;;;5032463;28;20414;-68
2021/01/19 02:13:12;;;;;;;0.30;0.30;;;1.90;99.90;;;;;;5032258;28;20221;-66
2021/01/19 02:15:50;;;;;;;0.30;0.30;;;1.80;99.90;;;;;;5014247;28;20171;-69
2021/01/19 02:18:15;;;;;;;0.30;0.30;;;1.70;99.90;;;;;;5013198;28;20229;-68
2021/01/19 02:20:57;;;;;;;0.40;0.40;;;1.70;99.90;;;;;;5031529;28;20182;-72
2021/01/19 02:23:51;;;;;;;0.40;0.40;;;1.60;99.90;;;;;;5032287;28;20194;-71
2021/01/19 02:26:41;;;;;;;0.30;0.30;;;1.60;99.90;;;;;;5031741;28;20184;-67
2021/01/19 02:29:25;;;;;;;0.30;0.30;;;1.60;99.90;;;;;;5024655;28;20183;-68
2021/01/19 02:32:10;;;;;;;0.40;0.40;;;1.50;99.90;;;;;;5014227;28;20724;-68
2021/01/19 02:34:59;;;;;;;0.40;0.40;;;1.50;99.90;;;;;;5028234;28;20216;-65
2021/01/19 02:37:30;;;;;;;1.00;1.00;;;1.40;99.90;;;;;;5036466;28;20228;-68
2021/01/19 02:40:06;;;;;;;0.30;0.30;;;1.40;99.90;;;;;;5022746;28;20194;-66
2021/01/19 02:42:58;;;;;;;0.30;0.30;;;1.30;99.90;;;;;;5018912;28;20224;-67
2021/01/19 02:45:24;;;;;;;0.40;0.40;;;1.30;99.90;;;;;;5032319;28;20174;-67
2021/01/19 02:47:50;;;;;;;0.30;0.30;;;1.30;99.90;;;;;;5036017;28;20177;-67
2021/01/19 02:50:16;;;;;;;0.30;0.30;;;1.30;99.90;;;;;;5034261;28;20186;-68
2021/01/19 02:52:42;;;;;;;0.40;0.40;;;1.30;99.90;;;;;;5035253;28;20197;-69
2021/01/19 02:55:09;;;;;;;0.30;0.30;;;1.30;99.90;;;;;;5035240;28;20203;-67
2021/01/19 02:58:03;;;;;;;0.30;0.30;;;1.20;99.90;;;;;;5034423;28;20177;-69
2021/01/19 03:00:47;;;;;;;0.30;0.30;;;1.20;99.90;;;;;;5016411;28;20175;-69
2021/01/19 03:03:14;;;;;;;0.30;0.30;;;1.20;99.90;;;;;;5016120;28;20294;-67
2021/01/19 03:05:41;;;;;;;0.30;0.30;;;1.30;99.90;;;;;;5014775;28;20190;-69
2021/01/19 03:08:08;;;;;;;0.30;0.30;;;1.30;99.90;;;;;;5018941;28;20207;-67
2021/01/19 03:10:40;;;;;;;0.30;0.30;;;1.30;99.90;;;;;;5035990;28;20170;-69
2021/01/19 03:13:13;;;;;;;0.30;0.30;;;1.40;99.90;;;;;;5034626;28;20189;-65
2021/01/19 03:15:40;;;;;;;0.38;0.38;;;1.40;99.90;;;;;;5034900;28;20668;-69
2021/01/19 03:18:07;;;;;;;0.30;0.30;;;1.50;99.90;;;;;;5033193;28;20182;-66
2021/01/19 03:20:33;;;;;;;0.30;0.30;;;1.50;99.90;;;;;;5015777;28;20163;-68
2021/01/19 03:22:59;;;;;;;0.30;0.30;;;1.60;99.90;;;;;;5034033;28;20693;-65
2021/01/19 03:25:25;;;;;;;0.30;0.30;;;1.70;99.90;;;;;;5035322;28;20536;-70
2021/01/19 03:27:51;;;;;;;0.40;0.40;;;1.80;99.90;;;;;;5035036;28;20253;-66
2021/01/19 03:30:17;;;;;;;2.00;1.90;;;1.80;99.90;;;;;;5035609;28;20403;-69
2021/01/19 03:32:42;;;;;;;0.40;0.40;;;1.90;99.90;;;;;;5018537;28;20206;-68
2021/01/19 03:35:09;;;;;;;0.30;0.30;;;2.00;99.90;;;;;;5015455;28;20453;-70
2021/01/19 03:37:35;;;;;;;0.30;0.20;;;2.00;99.90;;;;;;5029850;28;20668;-69
2021/01/19 03:40:02;;;;;;;0.30;0.30;;;2.10;99.90;;;;;;5035130;28;20182;-67
2021/01/19 03:42:28;;;;;;;0.30;0.30;;;2.10;99.90;;;;;;5017875;28;20638;-72
2021/01/19 03:44:53;;;;;;;0.40;0.40;;;2.10;99.90;;;;;;5014279;28;20182;-66
2021/01/19 03:47:19;;;;;;;0.30;0.30;;;2.20;99.90;;;;;;5029028;28;20256;-69
2021/01/19 03:49:45;;;;;;;0.30;0.30;;;2.20;99.90;;;;;;5035511;28;20181;-67
2021/01/19 03:52:10;;;;;;;0.30;0.30;;;2.30;99.90;;;;;;5033919;28;20197;-72
2021/01/19 03:54:36;;;;;;;2.50;2.30;;;2.30;99.90;;;;;;5034898;28;20210;-70
2021/01/19 03:57:02;;;;;;;0.70;0.70;;;2.30;99.90;;;;;;5024296;28;20689;-66
2021/01/19 03:59:27;;;;;;;0.30;0.30;;;2.40;99.90;;;;;;5020586;28;20211;-68
2021/01/19 04:01:53;;;;;;;0.30;0.30;;;2.40;99.90;;;;;;5033751;28;20174;-67
2021/01/19 04:04:18;;;;;;;0.30;0.30;;;2.50;99.90;;;;;;5034681;28;20304;-67
2021/01/19 04:06:44;;;;;;;0.30;0.30;;;2.50;99.90;;;;;;5027750;28;20192;-67
2021/01/19 04:09:10;;;;;;;0.30;0.30;;;2.50;99.90;;;;;;5018190;28;20189;-70
2021/01/19 04:11:36;;;;;;;0.30;0.30;;;2.50;99.90;;;;;;5033760;28;20182;-66
2021/01/19 04:14:01;;;;;;;0.30;0.30;;;2.50;99.90;;;;;;5033194;28;20216;-70
2021/01/19 04:16:27;;;;;;;0.30;0.30;;;2.40;99.90;;;;;;5030004;28;20512;-65
2021/01/19 04:18:53;;;;;;;0.30;0.30;;;2.50;99.90;;;;;;5015765;28;20409;-70
2021/01/19 04:21:18;;;;;;;0.30;0.30;;;2.50;99.90;;;;;;5033294;28;20634;-67
2021/01/19 04:23:44;;;;;;;0.30;0.30;;;2.40;99.90;;;;;;5034277;28;20193;-67
2021/01/19 04:26:09;;;;;;;0.30;0.30;;;2.50;99.90;;;;;;5033124;28;20188;-68
2021/01/19 04:28:35;;;;;;;0.30;0.30;;;2.40;99.90;;;;;;5015999;28;20174;-70
2021/01/19 04:31:01;;;;;;;0.43;0.43;;;2.40;99.90;;;;;;5015090;28;20175;-68
2021/01/19 04:33:26;;;;;;;0.30;0.30;;;2.40;99.90;;;;;;5033307;28;20225;-67
2021/01/19 04:35:52;;;;;;;0.30;0.30;;;2.30;99.90;;;;;;5033626;28;20182;-69
2021/01/19 04:38:18;;;;;;;0.30;0.30;;;2.20;99.90;;;;;;5014925;28;20265;-67
2021/01/19 04:40:44;;;;;;;0.30;0.30;;;2.20;99.90;;;;;;5013095;28;20178;-69
2021/01/19 04:43:12;;;;;;;0.30;0.30;;;2.10;99.90;;;;;;5030405;28;20558;-67
2021/01/19 04:45:40;;;;;;;0.50;0.50;;;2.00;99.90;;;;;;5014391;28;20422;-68
2021/01/19 04:48:07;;;;;;;0.30;0.30;;;1.90;99.90;;;;;;5031077;28;20202;-67
2021/01/19 04:50:35;;;;;;;0.30;0.30;;;1.90;99.90;;;;;;5033925;28;20665;-68
2021/01/19 04:53:02;;;;;;;0.50;0.50;;;1.80;99.90;;;;;;5015994;28;20286;-67
2021/01/19 04:55:28;;;;;;;0.30;0.30;;;1.80;99.90;;;;;;5013530;28;20198;-69
2021/01/19 04:58:02;;;;;;;0.30;0.30;;;1.80;99.90;;;;;;5017858;28;20183;-67
2021/01/19 05:00:37;;;;;;;0.30;0.30;;;1.80;99.90;;;;;;5033913;28;20158;-68
2021/01/19 05:03:02;;;;;;;0.40;0.40;;;1.80;99.90;;;;;;5016298;28;20198;-67
2021/01/19 05:05:49;;;;;;;0.30;0.30;;;1.80;99.90;;;;;;5013908;28;20199;-69
2021/01/19 05:08:18;;;;;;;0.30;0.30;;;1.80;99.90;;;;;;5031787;28;20229;-70
2021/01/19 05:11:04;;;;;;;0.40;0.40;;;1.80;99.90;;;;;;5033859;28;20162;-68
2021/01/19 05:13:41;;;;;;;0.40;0.40;;;1.90;99.90;;;;;;5032759;28;20221;-68
2021/01/19 05:16:22;;;;;;;0.40;0.40;;;2.00;99.90;;;;;;5031566;28;20181;-67
2021/01/19 05:18:48;;;;;;;0.30;0.30;;;2.00;99.90;;;;;;5014056;28;20254;-68
2021/01/19 05:21:14;;;;;;;0.30;0.30;;;2.10;99.90;;;;;;5015112;28;20217;-67
2021/01/19 05:23:40;;;;;;;0.40;0.40;;;2.10;99.90;;;;;;5033337;28;20243;-70
2021/01/19 05:26:08;;;;;;;0.30;0.30;;;2.10;99.90;;;;;;5030400;28;20202;-67
2021/01/19 05:28:36;;;;;;;0.30;0.30;;;2.10;99.90;;;;;;5031477;28;20182;-68
2021/01/19 05:31:24;;;;;;;0.30;0.30;;;2.10;99.90;;;;;;5032765;28;20256;-69
2021/01/19 05:33:52;;;;;;;0.30;0.20;;;2.10;99.90;;;;;;5033160;28;20237;-68
2021/01/19 05:36:22;;;;;;;0.30;0.30;;;2.10;99.90;;;;;;5032658;28;20178;-67
2021/01/19 05:38:52;;;;;;;0.30;0.30;;;2.00;99.90;;;;;;5031942;28;20565;-67
2021/01/19 05:41:35;;;;;;;0.40;0.40;;;2.00;99.90;;;;;;5032754;28;20188;-67
2021/01/19 05:44:16;;;;;;;0.40;0.40;;;2.00;99.90;;;;;;5032859;28;20194;-67
2021/01/19 05:46:44;;;;;;;0.30;0.30;;;1.90;99.90;;;;;;5027725;28;20178;-67
2021/01/19 05:49:22;;;;;;;0.30;0.30;;;1.90;99.90;;;;;;5013498;28;20206;-67
2021/01/19 05:51:50;;;;;;;0.70;0.70;;;1.90;99.90;;;;;;5020495;28;20257;-67
2021/01/19 05:54:25;;;;;;;0.30;0.30;;;1.90;99.90;;;;;;5033123;28;20205;-67
2021/01/19 05:56:57;;;;;;;0.30;0.30;;;1.90;99.90;;;;;;5031414;28;20166;-66
2021/01/19 05:59:27;;;;;;;0.30;0.30;;;1.90;99.90;;;;;;5032924;28;20185;-69
2021/01/19 06:02:00;;;;;;;0.40;0.40;;;1.90;99.90;;;;;;5031913;28;20162;-69
2021/01/19 06:04:33;;;;;;;0.40;0.40;;;1.90;99.90;;;;;;5031633;28;20259;-66
2021/01/19 06:06:59;;;;;;;0.40;0.40;;;2.00;99.90;;;;;;5029625;28;20512;-67
2021/01/19 06:09:25;;;;;;;0.40;0.40;;;2.00;99.90;;;;;;5030649;28;20315;-67
2021/01/19 06:11:56;;;;;;;0.30;0.30;;;2.00;99.90;;;;;;5036598;28;20182;-70
2021/01/19 06:14:24;;;;;;;0.30;0.30;;;2.00;99.90;;;;;;5037034;28;20337;-69
2021/01/19 06:16:50;;;;;;;0.30;0.30;;;2.00;99.90;;;;;;5025950;28;20286;-68
2021/01/19 06:19:28;;;;;;;0.30;0.30;;;2.00;99.90;;;;;;5021306;28;20201;-69
2021/01/19 06:21:55;;;;;;;0.30;0.30;;;2.00;99.90;;;;;;5035746;28;20412;-67
2021/01/19 06:24:34;;;;;;;0.30;0.30;;;2.00;99.90;;;;;;5036700;28;20649;-69
2021/01/19 06:27:01;;;;;;;0.30;0.30;;;2.00;99.90;;;;;;5017720;28;20185;-68
2021/01/19 06:29:28;;;;;;;0.40;0.40;;;2.00;99.90;;;;;;5033795;28;20606;-67
2021/01/19 06:31:56;;;;;;;0.30;0.30;;;2.00;99.90;;;;;;5030247;28;20181;-68
2021/01/19 06:34:27;;;;;;;0.30;0.30;;;2.00;99.90;;;;;;5018378;28;20225;-67
2021/01/19 06:36:53;;;;;;;0.40;0.40;;;2.00;99.90;;;;;;5016447;28;20174;-68
2021/01/19 06:39:37;;;;;;;0.30;0.30;;;2.00;99.90;;;;;;5029530;28;20177;-67
2021/01/19 06:42:09;;;;;;;0.30;0.30;;;2.00;99.90;;;;;;5032954;28;20444;-70
2021/01/19 06:44:42;;;;;;;0.30;0.30;;;2.00;99.90;;;;;;5020724;28;20267;-67
2021/01/19 06:47:08;;;;;;;0.30;0.30;;;2.00;99.90;;;;;;5035991;28;20174;-69
2021/01/19 06:49:39;;;;;;;0.40;0.40;;;1.90;99.90;;;;;;5021267;28;20190;-69
2021/01/19 06:52:13;;;;;;;0.30;0.30;;;1.90;99.90;;;;;;5034029;28;20181;-69
2021/01/19 06:54:53;;;;;;;0.40;0.40;;;1.90;99.90;;;;;;5035294;28;20200;-69
2021/01/19 06:57:50;;;;;;;0.40;0.40;;;1.90;99.90;;;;;;5024089;28;20538;-68
2021/01/19 07:00:18;;;;;;;0.30;0.30;;;1.80;99.90;;;;;;5016194;28;20160;-69
2021/01/19 07:02:48;;;;;;;0.30;0.30;;;1.80;99.90;;;;;;5028749;28;20284;-70
2021/01/19 07:05:20;;;;;;;1.02;0.93;;;1.80;99.90;;;;;;5035830;28;20185;-73
2021/01/19 07:07:47;;;;;;;0.30;0.30;;;1.80;99.90;;;;;;5033940;28;20253;-69
2021/01/19 07:10:14;;;;;;;0.40;0.40;;;1.80;99.90;;;;;;5035873;28;20178;-71
2021/01/19 07:12:56;;;;;;;0.30;0.30;;;1.80;99.90;;;;;;5021154;28;20550;-68
2021/01/19 07:15:44;;;;;;;0.40;0.40;;;1.80;99.90;;;;;;5015868;28;20300;-69
2021/01/19 07:18:48;;;;;;;0.30;0.30;;;1.80;99.90;;;;;;5023399;28;20175;-67
2021/01/19 07:21:16;;;;;;;0.38;0.38;;;1.90;99.90;;;;;;5014323;28;20269;-68
2021/01/19 07:23:47;;;;;;;0.40;0.40;;;1.90;99.90;;;;;;5015777;28;20203;-69
2021/01/19 07:26:18;;;;;;;0.30;0.30;;;1.90;99.90;;;;;;5014553;28;20224;-69
2021/01/19 07:28:45;;;;;;;0.30;0.30;;;1.80;99.90;;;;;;5015757;28;20163;-71
2021/01/19 07:31:13;;;;;;;0.47;0.47;;;1.90;99.90;;;;;;5033525;28;20270;-67
2021/01/19 07:33:43;;;;;;;0.30;0.30;;;1.90;99.90;;;;;;5033612;28;20244;-69
2021/01/19 07:36:20;;;;;;;0.30;0.30;;;1.90;99.90;;;;;;5033604;28;20178;-69
2021/01/19 07:38:47;;;;;;;2.05;1.95;;;2.10;99.90;;;;;;5034933;28;20173;-67
2021/01/19 07:41:25;;;;;;;0.30;0.30;;;2.10;99.90;;;;;;5034897;28;20198;-69
2021/01/19 07:43:52;;;;;;;0.30;0.30;;;2.20;99.90;;;;;;5035339;28;20197;-67
2021/01/19 07:46:29;;;;;;;0.30;0.30;;;2.20;99.90;;;;;;5035474;28;20180;-68
2021/01/19 07:49:09;;;;;;;0.30;0.30;;;2.30;99.90;;;;;;5036380;28;20169;-68
2021/01/19 07:51:44;;;;;;;0.30;0.30;;;2.30;99.90;;;;;;5035497;28;20166;-68
2021/01/19 07:54:35;;;;;;;0.30;0.30;;;2.50;99.90;;;;;;5035263;28;20248;-72
2021/01/19 07:57:29;;;;;;;0.30;0.30;;;2.60;99.90;;;;;;5035223;28;20174;-70
2021/01/19 07:59:57;;;;;;;0.30;0.30;;;2.60;99.90;;;;;;5033312;28;20181;-71
2021/01/19 08:02:25;;;;;;;0.30;0.30;;;2.70;99.90;;;;;;5034447;28;20174;-72
2021/01/19 08:05:06;;;;;;;0.30;0.30;;;2.70;99.90;;;;;;5034855;28;20198;-72
2021/01/19 08:07:42;;;;;;;0.30;0.30;;;2.70;99.90;;;;;;5033478;28;20174;-71
2021/01/19 08:10:29;;;;;;;0.40;0.40;;;2.80;99.90;;;;;;5033705;28;20174;-71
2021/01/19 08:12:59;;;;;;;0.30;0.30;;;2.90;99.90;;;;;;5033077;28;20741;-68
2021/01/19 08:15:34;;;;;;;0.30;0.30;;;2.90;99.90;;;;;;5034757;28;20219;-75
2021/01/19 08:18:02;;;;;;;0.30;0.30;;;3.00;99.90;;;;;;5034790;28;20166;-70
2021/01/19 08:20:32;;;;;;;0.30;0.30;;;3.10;99.90;;;;;;5032904;28;20182;-70
2021/01/19 08:23:24;;;;;;;0.30;0.30;;;3.30;99.90;;;;;;5014239;28;20286;-71
2021/01/19 08:25:50;;;;;;;0.32;0.32;;;3.40;99.90;;;;;;5015060;28;20164;-70
2021/01/19 08:28:15;;;;;;;0.30;0.30;;;3.60;99.90;;;;;;5014646;28;20225;-70
2021/01/19 08:30:44;;;;;;;0.30;0.30;;;3.90;99.90;;;;;;5029807;28;20752;-69
2021/01/19 08:33:11;;;;;;;0.30;0.30;;;4.30;99.90;;;;;;5033761;28;20433;-69
2021/01/19 08:35:38;;;;;;;0.30;0.30;;;4.90;99.90;;;;;;5034489;28;20170;-74
2021/01/19 08:38:04;;;;;;;0.30;0.30;;;5.60;99.90;;;;;;5017879;28;20258;-71
2021/01/19 08:40:32;;;;;;;0.30;0.30;;;6.10;99.90;;;;;;5013217;28;20665;-73
2021/01/19 08:42:59;;;;;;;0.30;0.28;;;6.60;99.90;;;;;;5011999;28;20582;-73
2021/01/19 08:45:33;;;;;;;0.30;0.30;;;6.90;99.90;;;;;;5026921;28;20178;-72
2021/01/19 08:48:01;;;;;;;0.30;0.30;;;7.20;99.40;;;;;;5033757;28;20223;-72
2021/01/19 08:50:28;;;;;;;0.30;0.30;;;7.60;98.30;;;;;;5033854;28;20181;-74
2021/01/19 08:52:54;;;;;;;0.30;0.30;;;8.10;97.60;;;;;;5031087;28;20201;-69
2021/01/19 08:55:22;;;;;;;0.30;0.20;;;8.50;96.00;;;;;;5033289;28;20685;-76
2021/01/19 08:57:53;;;;;;;0.30;0.30;;;8.80;94.80;;;;;;5033039;28;20220;-72
2021/01/19 09:00:39;;;;;;;0.30;0.30;;;8.70;94.50;;;;;;5111009;27;20507;-71
2021/01/19 09:03:12;;;;;;;0.30;0.30;;;8.90;94.50;;;;;;5110380;28;20237;-71
2021/01/19 09:05:38;;;;;;;0.30;0.30;;;8.50;94.00;;;;;;5111020;28;20428;-71
2021/01/19 09:08:16;;;;;;;0.30;0.30;;;8.20;93.90;;;;;;5111121;28;20256;-72
2021/01/19 09:10:42;;;;;;;0.30;0.30;;;7.80;94.00;;;;;;5110050;28;20444;-73
2021/01/19 09:13:08;;;;;;;1.20;1.20;;;7.40;94.40;;;;;;5110615;28;20202;-72
2021/01/19 09:15:42;;;;;;;0.30;0.30;;;7.30;94.70;;;;;;5111763;28;20540;-71
2021/01/19 09:18:15;;;;;;;0.30;0.28;;;6.90;94.60;;;;;;5111793;28;20160;-70
2021/01/19 09:20:42;;;;;;;0.30;0.30;;;6.60;95.20;;;;;;5111389;28;20168;-72
2021/01/19 09:23:17;;;;;;;0.30;0.20;;;6.30;95.60;;;;;;5110357;28;20222;-71
2021/01/19 09:25:44;;;;;;;0.30;0.30;;;6.00;96.40;;;;;;5111076;28;20182;-72
2021/01/19 09:28:11;;;;;;;0.30;0.30;;;5.60;96.70;;;;;;5110461;28;20200;-72
2021/01/19 09:30:39;;;;;;;0.30;0.30;;;5.40;96.90;;;;;;5110791;28;20183;-72
2021/01/19 09:33:10;;;;;;;0.30;0.25;;;5.20;97.20;;;;;;5109022;28;20195;-70
2021/01/19 09:35:39;;;;;;;1.77;0.57;;;5.00;97.60;;;;;;5110664;28;20262;-70
2021/01/19 09:38:20;;;;;;;1.30;0.85;;;4.90;97.70;;;;;;5111115;28;20164;-71
2021/01/19 09:40:47;;;;;;;0.30;0.30;;;4.90;98.10;;;;;;5110606;28;20228;-71
2021/01/19 09:43:15;;;;;;;0.75;0.75;;;4.70;97.90;;;;;;5110465;28;20530;-71
2021/01/19 09:45:41;;;;;;;0.30;0.30;;;4.50;98.60;;;;;;5110665;28;20202;-71
2021/01/19 09:48:09;;;;;;;0.30;0.30;;;4.40;99.10;;;;;;5110412;28;20256;-72
2021/01/19 09:50:34;;;;;;;0.30;0.30;;;4.40;98.90;;;;;;5110124;28;20195;-71
2021/01/19 09:53:00;;;;;;;0.30;0.30;;;4.40;98.90;;;;;;5113735;28;20188;-71
2021/01/19 09:55:30;;;;;;;0.30;0.30;;;4.30;98.90;;;;;;5109618;28;20563;-70
2021/01/19 09:58:05;;;;;;;0.45;0.45;;;4.20;98.90;;;;;;5108960;28;20528;-71
2021/01/19 10:00:37;;;;;;;0.30;0.30;;;4.10;99.40;;;;;;5108696;28;20207;-71
2021/01/19 10:03:16;;;;;;;0.50;0.50;;;4.00;99.50;;;;;;5109783;28;20188;-72
2021/01/19 10:05:42;;;;;;;0.30;0.30;;;4.00;99.60;;;;;;5110701;28;20191;-71
2021/01/19 10:08:09;;;;;;;0.32;0.32;;;3.90;99.90;;;;;;5108859;28;20599;-70
2021/01/19 10:10:36;;;;;;;0.30;0.30;;;3.90;99.90;;;;;;5102429;28;20195;-70
2021/01/19 10:13:03;;;;;;;0.30;0.30;;;3.90;99.90;;;;;;5095617;28;20591;-71
2021/01/19 10:15:29;;;;;;;0.30;0.30;;;4.00;99.90;;;;;;5096657;28;20172;-72
2021/01/19 10:17:58;;;;;;;0.30;0.30;;;4.00;99.90;;;;;;5096233;28;20166;-72
2021/01/19 10:20:48;;;;;;;0.40;0.40;;;4.10;99.90;;;;;;5096298;28;20180;-71
2021/01/19 10:23:23;;;;;;;0.30;0.30;;;4.10;99.90;;;;;;5095459;28;20282;-72
2021/01/19 10:25:54;;;;;;;0.30;0.30;;;4.10;99.90;;;;;;5095734;28;20182;-72
2021/01/19 10:28:25;;;;;;;0.85;0.63;;;4.00;99.90;;;;;;5096217;28;20164;-71
2021/01/19 10:30:50;;;;;;;0.30;0.30;;;4.00;99.90;;;;;;5096316;28;20171;-71
2021/01/19 10:33:30;;;;;;;0.30;0.30;;;4.00;99.90;;;;;;5095701;28;20543;-72
2021/01/19 10:36:05;;;;;;;0.60;0.60;;;4.00;99.90;;;;;;5096233;28;20195;-73
2021/01/19 10:38:31;;;;;;;0.35;0.35;;;4.00;99.90;;;;;;5095970;28;20192;-71
2021/01/19 10:40:56;;;;;;;0.70;0.70;;;4.00;99.90;;;;;;5095825;28;20168;-71
2021/01/19 10:43:27;;;;;;;0.60;0.60;;;4.10;99.90;;;;;;5095498;28;20253;-69
2021/01/19 10:45:53;;;;;;;1.05;1.05;;;4.20;99.90;;;;;;5094287;28;20168;-72
2021/01/19 10:48:20;;;;;;;0.30;0.30;;;4.20;99.90;;;;;;5095591;28;20160;-70
2021/01/19 10:50:47;;;;;;;0.77;0.77;;;4.10;99.90;;;;;;5094311;28;20168;-70
2021/01/19 10:53:12;;;;;;;0.38;0.38;;;4.20;99.90;;;;;;5094921;28;20188;-71
2021/01/19 10:55:38;;;;;;;0.70;0.70;;;4.10;99.90;;;;;;5095390;28;20179;-71
2021/01/19 10:58:05;;;;;;;0.30;0.30;;;4.10;99.90;;;;;;5095425;28;20173;-71
2021/01/19 11:00:32;;;;;;;0.30;0.30;;;4.00;99.90;;;;;;5094969;28;20302;-71
2021/01/19 11:02:58;;;;;;;0.30;0.30;;;4.10;99.90;;;;;;5094799;28;20188;-72
2021/01/19 11:05:26;;;;;;;0.30;0.30;;;4.00;99.90;;;;;;5095464;28;20616;-71
2021/01/19 11:07:54;;;;;;;0.30;0.30;;;4.00;99.90;;;;;;5095199;28;20168;-73
2021/01/19 11:10:22;;;;;;;0.30;0.30;;;4.00;99.90;;;;;;5095189;28;20203;-73
2021/01/19 11:12:48;;;;;;;0.30;0.30;;;4.10;99.90;;;;;;5094272;28;20570;-72
2021/01/19 11:15:14;;;;;;;0.30;0.30;;;4.20;99.90;;;;;;5094960;28;20171;-71
2021/01/19 11:17:41;;;;;;;0.82;0.82;;;4.10;99.90;;;;;;5095321;28;20607;-72
2021/01/19 11:20:10;;;;;;;0.30;0.30;;;4.20;99.90;;;;;;5094714;28;20219;-70
2021/01/19 11:22:36;;;;;;;0.30;0.30;;;4.20;99.90;;;;;;5093072;28;20191;-72
2021/01/19 11:25:03;;;;;;;0.30;0.30;;;4.10;99.90;;;;;;5094629;28;20164;-72
2021/01/19 11:27:29;;;;;;;0.30;0.30;;;4.20;99.90;;;;;;5094907;28;20245;-71
2021/01/19 11:29:55;;;;;;;0.30;0.30;;;4.30;99.90;;;;;;5094544;28;20593;-70
2021/01/19 11:32:21;;;;;;;0.30;0.30;;;4.30;99.90;;;;;;5094438;28;20164;-71
2021/01/19 11:34:47;;;;;;;0.30;0.30;;;4.40;99.90;;;;;;5093502;28;20172;-72
2021/01/19 11:37:15;;;;;;;0.30;0.30;;;4.40;99.90;;;;;;5094738;28;20823;-73
2021/01/19 11:39:42;;;;;;;0.40;0.40;;;4.50;99.90;;;;;;5094591;28;20545;-75
2021/01/19 11:42:08;;;;;;;0.30;0.30;;;4.50;99.90;;;;;;5074044;28;20193;-74
2021/01/19 11:44:34;;;;;;;0.30;0.30;;;4.60;99.90;;;;;;5074355;28;20192;-71
2021/01/19 11:46:59;;;;;;;0.30;0.20;;;4.60;99.90;;;;;;5074383;28;20157;-73
2021/01/19 11:49:25;;;;;;;0.30;0.30;;;4.70;99.90;;;;;;5074712;28;20527;-73
2021/01/19 11:51:51;;;;;;;0.30;0.30;;;4.70;99.90;;;;;;5074669;28;20180;-74
2021/01/19 11:54:20;;;;;;;0.30;0.30;;;4.80;99.90;;;;;;5075278;28;20195;-71
2021/01/19 11:56:52;;;;;;;0.30;0.30;;;4.80;99.90;;;;;;5093197;28;20638;-72
2021/01/19 11:59:19;;;;;;;0.30;0.30;;;4.90;99.90;;;;;;5094174;28;20211;-69
2021/01/19 12:01:57;;;;;;;1.35;1.35;;;4.90;99.90;;;;;;5093737;28;20196;-71
2021/01/19 12:04:24;;;;;;;1.70;1.60;;;5.00;99.90;;;;;;5094237;28;20222;-72
2021/01/19 12:06:50;;;;;;;0.30;0.30;;;5.00;99.90;;;;;;5094178;28;20171;-71
2021/01/19 12:09:16;;;;;;;0.30;0.20;;;5.00;99.90;;;;;;5093949;28;20176;-71
2021/01/19 12:11:44;;;;;;;0.30;0.30;;;5.00;99.90;;;;;;5092609;28;20218;-71
2021/01/19 12:14:10;;;;;;;0.30;0.30;;;5.00;99.90;;;;;;5093914;28;20279;-71
2021/01/19 12:16:38;;;;;;;0.30;0.30;;;5.10;99.90;;;;;;5094115;28;20218;-75
2021/01/19 12:19:10;;;;;;;0.30;0.30;;;5.10;99.90;;;;;;5094529;28;20192;-72
2021/01/19 12:21:49;;;;;;;0.30;0.30;;;5.20;99.90;;;;;;5094004;28;20688;-72
2021/01/19 12:24:16;;;;;;;0.30;0.30;;;5.20;99.90;;;;;;5094043;28;20198;-72
2021/01/19 12:26:45;;;;;;;0.30;0.30;;;5.20;99.90;;;;;;5094559;28;20164;-75
2021/01/19 12:29:11;;;;;;;0.45;0.45;;;5.20;99.90;;;;;;5094239;28;20172;-73
2021/01/19 12:31:39;;;;;;;0.30;0.30;;;5.20;99.90;;;;;;5092606;28;20244;-77
2021/01/19 12:34:05;;;;;;;0.30;0.30;;;5.30;99.90;;;;;;5094125;28;20292;-72
2021/01/19 12:36:31;;;;;;;0.30;0.30;;;5.40;99.90;;;;;;5093385;28;20172;-72
2021/01/19 12:39:03;;;;;;;0.30;0.30;;;5.40;99.90;;;;;;5095102;28;20195;-75
2021/01/19 12:41:30;;;;;;;0.30;0.30;;;5.50;99.90;;;;;;5092961;28;20530;-74
2021/01/19 12:43:56;;;;;;;0.30;0.30;;;5.50;99.90;;;;;;5094101;28;20662;-71
2021/01/19 12:46:22;;;;;;;0.30;0.30;;;5.50;99.90;;;;;;5094344;28;20172;-72
2021/01/19 12:48:48;;;;;;;0.73;0.73;;;5.50;99.90;;;;;;5093870;28;20221;-74
2021/01/19 12:51:18;;;;;;;0.30;0.30;;;5.60;99.90;;;;;;5094071;28;20216;-70
2021/01/19 12:53:45;;;;;;;0.30;0.30;;;5.60;99.90;;;;;;5095099;28;20195;-74
2021/01/19 12:56:15;;;;;;;0.35;0.35;;;5.60;99.90;;;;;;5093881;28;20254;-71
2021/01/19 12:58:41;;;;;;;0.30;0.30;;;5.60;99.90;;;;;;5093717;28;20199;-74
2021/01/19 13:01:07;;;;;;;0.32;0.32;;;5.60;99.90;;;;;;5093368;28;20290;-73
2021/01/19 13:03:35;;;;;;;0.30;0.30;;;5.60;99.90;;;;;;5093095;28;20554;-74
2021/01/19 13:06:01;;;;;;;0.30;0.30;;;5.60;99.90;;;;;;5092737;28;20169;-71
2021/01/19 13:08:27;;;;;;;0.30;0.30;;;5.60;99.90;;;;;;5075391;28;20168;-72
2021/01/19 13:10:53;;;;;;;0.30;0.30;;;5.60;99.90;;;;;;5092229;28;20645;-73